Time;durP1;ratioP1;P1;durP2;ratioP2;P2;SDS_P1;SDS_P2;PMS_P1;PMS_P2;Temp;Humidity;BMP_temperature;BMP_pressure;BME280_temperature;BME280_humidity;BME280_pressure;Samples;Min_cycle;Max_cycle;Signal;HPM_P1;HPM_P2
2022/02/07 00:00:12;;;;;;;3.50;2.53;;;7.00;71.50;;;;;;5027142;28;20550;-85
2022/02/07 00:05:25;;;;;;;5.43;2.40;;;7.00;72.30;;;;;;5030691;28;20043;-85
2022/02/07 00:07:51;;;;;;;3.03;1.70;;;7.10;71.30;;;;;;5024251;28;20026;-84
2022/02/07 00:10:18;;;;;;;5.10;2.33;;;7.00;71.70;;;;;;5028659;28;20061;-85
2022/02/07 00:12:46;;;;;;;4.33;2.23;;;7.00;71.90;;;;;;5032602;28;20396;-85
2022/02/07 00:15:17;;;;;;;3.13;1.70;;;6.80;71.80;;;;;;5031743;28;20473;-85
2022/02/07 00:17:43;;;;;;;3.50;2.00;;;6.80;72.50;;;;;;5020263;28;20018;-85
2022/02/07 00:20:19;;;;;;;5.47;2.20;;;6.90;72.40;;;;;;5029365;28;20022;-85
2022/02/07 00:22:46;;;;;;;3.10;2.20;;;6.80;72.30;;;;;;5028429;28;20026;-85
2022/02/07 00:25:11;;;;;;;5.73;2.53;;;6.90;72.70;;;;;;5030440;28;20029;-85
2022/02/07 00:27:38;;;;;;;3.53;2.00;;;6.90;72.40;;;;;;5032506;28;20037;-85
2022/02/07 00:30:06;;;;;;;4.23;2.30;;;6.90;72.00;;;;;;5032205;28;20026;-85
2022/02/07 00:32:32;;;;;;;5.23;2.40;;;6.90;72.00;;;;;;5023577;28;20428;-85
2022/02/07 00:34:57;;;;;;;7.27;2.83;;;6.90;71.80;;;;;;5027465;28;20051;-85
2022/02/07 00:37:25;;;;;;;4.70;2.77;;;6.90;72.00;;;;;;5031561;28;20057;-85
2022/02/07 00:39:59;;;;;;;4.50;2.53;;;7.00;71.70;;;;;;5029960;28;20018;-85
2022/02/07 00:42:32;;;;;;;5.73;3.33;;;6.90;71.60;;;;;;5031133;28;20033;-85
2022/02/07 00:45:06;;;;;;;;;;;6.80;71.80;;;;;;5029706;28;20638;-85
2022/02/07 00:47:32;;;;;;;5.37;3.63;;;6.70;71.90;;;;;;5030911;28;19913;-85
2022/02/07 00:49:59;;;;;;;5.37;2.77;;;6.60;71.50;;;;;;5019580;28;20524;-85
2022/02/07 00:52:25;;;;;;;5.10;3.37;;;6.60;71.70;;;;;;5027544;28;20021;-85
2022/02/07 00:54:51;;;;;;;4.67;3.00;;;6.50;71.80;;;;;;5031764;28;20300;-85
2022/02/07 00:57:17;;;;;;;5.47;3.27;;;6.50;72.00;;;;;;5031167;28;20021;-85
2022/02/07 00:59:42;;;;;;;5.03;2.60;;;6.50;72.40;;;;;;5032013;28;20523;-85
2022/02/07 01:02:08;;;;;;;3.47;2.50;;;6.50;72.30;;;;;;5031600;28;20029;-85
2022/02/07 01:04:34;;;;;;;5.10;3.00;;;6.50;72.20;;;;;;5030690;28;20053;-85
2022/02/07 01:07:03;;;;;;;7.87;3.60;;;6.50;71.90;;;;;;5028334;28;20076;-85
2022/02/07 01:09:38;;;;;;;4.63;2.97;;;6.40;71.90;;;;;;5025855;28;20377;-85
2022/02/07 01:12:16;;;;;;;13.93;4.03;;;6.30;72.60;;;;;;5030383;28;20038;-85
2022/02/07 01:23:03;;;;;;;5.73;3.83;;;6.00;73.20;;;;;;5017659;28;20034;-85
2022/02/07 01:52:37;;;;;;;5.50;3.43;;;5.60;73.90;;;;;;5030701;28;20457;-85
2022/02/07 01:55:11;;;;;;;6.07;3.43;;;5.60;73.60;;;;;;5025161;28;20519;-85
2022/02/07 01:57:37;;;;;;;4.47;2.63;;;5.50;74.30;;;;;;5026994;28;20022;-85
2022/02/07 02:00:07;;;;;;;4.87;3.03;;;5.50;74.70;;;;;;5030681;28;20032;-85
2022/02/07 02:02:33;;;;;;;4.50;2.30;;;5.60;74.40;;;;;;5027212;28;20115;-85
2022/02/07 02:04:59;;;;;;;3.50;1.30;;;5.50;74.60;;;;;;5029063;28;20199;-85
2022/02/07 02:07:25;;;;;;;13.33;8.00;;;5.60;74.70;;;;;;5029468;28;20108;-85
2022/02/07 02:09:51;;;;;;;4.77;3.00;;;5.60;75.10;;;;;;5024045;28;20032;-86
2022/02/07 02:12:17;;;;;;;2.67;1.90;;;5.80;74.90;;;;;;5024382;28;20029;-85
2022/02/07 02:15:10;;;;;;;0.40;0.23;;;6.10;74.80;;;;;;5029475;28;20021;-85
2022/02/07 02:36:39;;;;;;;2.57;0.73;;;6.00;72.60;;;;;;5030207;28;20025;-85
2022/02/07 02:47:08;;;;;;;0.70;0.17;;;6.00;70.90;;;;;;5027220;28;20064;-85
2022/02/07 02:49:44;;;;;;;0.30;0.10;;;5.90;70.90;;;;;;5022349;28;20033;-85
2022/02/07 02:52:10;;;;;;;0.00;0.00;;;5.80;71.00;;;;;;5019462;28;20120;-85
2022/02/07 02:54:36;;;;;;;0.60;0.10;;;5.80;71.00;;;;;;5029840;28;20049;-85
2022/02/07 02:57:02;;;;;;;0.20;0.10;;;5.90;71.30;;;;;;5023566;28;20048;-85
2022/02/07 02:59:28;;;;;;;0.00;0.00;;;5.90;70.40;;;;;;5019424;28;20489;-86
2022/02/07 03:01:53;;;;;;;0.00;0.00;;;6.00;70.80;;;;;;5024452;28;20048;-85
2022/02/07 03:04:19;;;;;;;0.13;0.00;;;6.10;70.40;;;;;;5022111;28;20037;-85
2022/02/07 03:06:45;;;;;;;0.10;0.00;;;6.00;70.10;;;;;;5022395;28;20028;-86
2022/02/07 03:09:14;;;;;;;0.00;0.00;;;6.00;70.20;;;;;;5026601;28;20034;-85
2022/02/07 03:11:40;;;;;;;0.10;0.00;;;6.00;70.30;;;;;;5025641;28;20286;-84
2022/02/07 03:14:07;;;;;;;0.00;0.00;;;5.80;70.00;;;;;;5026044;28;20022;-85
2022/02/07 03:16:41;;;;;;;0.07;0.07;;;5.70;70.50;;;;;;5023743;28;20029;-85
2022/02/07 03:19:15;;;;;;;0.00;0.00;;;5.70;70.30;;;;;;5026263;28;20023;-86
2022/02/07 03:21:42;;;;;;;0.00;0.00;;;5.60;70.50;;;;;;5026817;28;20472;-85
2022/02/07 03:24:09;;;;;;;0.00;0.00;;;5.60;70.50;;;;;;5031965;28;20102;-85
2022/02/07 03:26:42;;;;;;;0.07;0.00;;;5.60;71.00;;;;;;5026352;28;20112;-85
2022/02/07 03:29:09;;;;;;;0.10;0.07;;;5.60;70.60;;;;;;5033350;28;20477;-86
2022/02/07 03:31:35;;;;;;;0.00;0.00;;;5.70;70.80;;;;;;5031953;28;20025;-85
2022/02/07 03:34:01;;;;;;;0.20;0.20;;;5.60;70.60;;;;;;5032332;28;20025;-85
2022/02/07 03:36:30;;;;;;;0.00;0.00;;;5.60;70.80;;;;;;5044996;28;20160;-85
2022/02/07 03:38:55;;;;;;;0.10;0.00;;;5.50;70.80;;;;;;5027715;28;20385;-85
2022/02/07 03:41:21;;;;;;;0.57;0.00;;;5.60;71.10;;;;;;5024898;28;20036;-86
2022/02/07 03:43:47;;;;;;;0.10;0.00;;;5.70;70.90;;;;;;5025976;28;20087;-85
2022/02/07 03:46:13;;;;;;;0.00;0.00;;;5.70;70.60;;;;;;5022573;28;20067;-85
2022/02/07 03:48:39;;;;;;;0.00;0.00;;;5.50;70.70;;;;;;5019249;28;20523;-86
2022/02/07 03:51:05;;;;;;;0.00;0.00;;;5.50;71.30;;;;;;5019743;28;20030;-86
2022/02/07 03:53:30;;;;;;;0.00;0.00;;;5.50;71.00;;;;;;5028040;28;20423;-86
2022/02/07 03:55:56;;;;;;;0.00;0.00;;;5.40;70.80;;;;;;5020554;28;20491;-86
2022/02/07 03:58:22;;;;;;;0.20;0.17;;;5.40;71.00;;;;;;5027089;28;20026;-85
2022/02/07 04:00:50;;;;;;;0.30;0.10;;;5.50;71.20;;;;;;5028577;28;20116;-86
2022/02/07 04:03:17;;;;;;;0.93;0.10;;;5.70;71.20;;;;;;5024144;28;20047;-86
2022/02/07 04:08:10;;;;;;;0.00;0.00;;;5.70;70.60;;;;;;5031498;28;20075;-86
2022/02/07 04:10:50;;;;;;;0.00;0.00;;;5.60;70.60;;;;;;5032408;28;20022;-86
2022/02/07 04:13:17;;;;;;;0.00;0.00;;;5.60;70.70;;;;;;5029417;28;20052;-86
2022/02/07 04:15:43;;;;;;;0.77;0.10;;;5.80;71.30;;;;;;5027973;28;20373;-85
2022/02/07 04:18:13;;;;;;;0.10;0.10;;;6.30;70.60;;;;;;5030119;28;20026;-86
2022/02/07 04:20:39;;;;;;;0.37;0.10;;;6.30;69.30;;;;;;5019411;28;20025;-86
2022/02/07 04:23:05;;;;;;;0.20;0.10;;;6.30;69.20;;;;;;5029353;28;20029;-85
2022/02/07 04:25:33;;;;;;;0.73;0.10;;;6.10;69.20;;;;;;5027389;28;20057;-86
2022/02/07 04:27:59;;;;;;;0.10;0.10;;;5.90;69.50;;;;;;5022052;28;20033;-86
2022/02/07 04:30:25;;;;;;;0.30;0.10;;;5.60;69.50;;;;;;5030257;28;20025;-85
2022/02/07 04:32:50;;;;;;;0.40;0.20;;;5.40;70.30;;;;;;5031292;28;20026;-86
2022/02/07 04:35:16;;;;;;;0.10;0.10;;;5.40;71.00;;;;;;5030429;28;20033;-86
2022/02/07 04:37:42;;;;;;;0.30;0.20;;;5.50;71.70;;;;;;5031532;28;20041;-86
2022/02/07 04:40:08;;;;;;;1.40;0.20;;;6.00;71.30;;;;;;5016843;28;20116;-86
2022/02/07 04:42:34;;;;;;;0.10;0.10;;;6.00;70.10;;;;;;5025311;28;20160;-86
2022/02/07 04:58:06;;;;;;;0.37;0.20;;;7.00;66.30;;;;;;5029877;28;20418;-85
2022/02/07 05:03:10;;;;;;;1.20;0.30;;;6.30;67.50;;;;;;5027366;28;20435;-85
2022/02/07 05:16:15;;;;;;;2.47;1.20;;;5.80;68.90;;;;;;5031488;28;20028;-86
2022/02/07 05:18:41;;;;;;;0.80;0.20;;;5.70;68.90;;;;;;5028542;28;20018;-86
2022/02/07 05:21:07;;;;;;;0.57;0.30;;;5.60;68.80;;;;;;5030065;28;20392;-85
2022/02/07 05:23:32;;;;;;;0.40;0.20;;;5.70;69.90;;;;;;5028812;28;20026;-85
2022/02/07 05:25:58;;;;;;;0.70;0.23;;;5.80;69.50;;;;;;5026566;28;20025;-85
2022/02/07 05:28:24;;;;;;;0.20;0.20;;;6.00;69.30;;;;;;5019660;28;20033;-86
2022/02/07 05:30:50;;;;;;;0.60;0.37;;;6.20;69.40;;;;;;5031300;28;20033;-85
2022/02/07 05:33:15;;;;;;;0.50;0.40;;;6.60;68.60;;;;;;5024781;28;20578;-86
2022/02/07 05:35:41;;;;;;;0.50;0.23;;;7.00;67.70;;;;;;5026984;28;20017;-85
2022/02/07 05:38:09;;;;;;;0.47;0.20;;;7.10;66.40;;;;;;5025430;28;20117;-85
2022/02/07 05:43:00;;;;;;;1.77;0.57;;;7.00;66.90;;;;;;5031312;28;20500;-85
2022/02/07 05:45:26;;;;;;;2.50;1.00;;;6.90;66.50;;;;;;5028720;28;20033;-86
2022/02/07 05:47:53;;;;;;;5.60;3.13;;;6.80;66.80;;;;;;5031798;28;20057;-86
2022/02/07 05:50:19;;;;;;;0.80;0.50;;;7.00;66.90;;;;;;5032070;28;20029;-86
2022/02/07 05:52:44;;;;;;;0.33;0.20;;;7.40;65.80;;;;;;5018716;28;20026;-86
2022/02/07 05:55:10;;;;;;;0.20;0.20;;;7.10;65.00;;;;;;5015598;28;20033;-85
2022/02/07 05:57:36;;;;;;;0.50;0.30;;;6.70;65.60;;;;;;5023323;28;20056;-86
2022/02/07 06:00:04;;;;;;;1.57;0.97;;;6.60;67.00;;;;;;5029660;28;20044;-85
2022/02/07 06:02:30;;;;;;;0.93;0.70;;;6.90;66.40;;;;;;5023332;28;20060;-85
2022/02/07 06:04:56;;;;;;;3.80;0.97;;;6.70;65.60;;;;;;5016254;28;20046;-85
2022/02/07 06:07:21;;;;;;;5.87;3.23;;;6.40;66.10;;;;;;5043307;28;20388;-85
2022/02/07 06:09:47;;;;;;;1.93;1.07;;;6.20;66.70;;;;;;5028957;28;20065;-85
2022/02/07 06:12:13;;;;;;;1.40;0.63;;;6.00;67.00;;;;;;5028718;28;20033;-85
2022/02/07 06:14:39;;;;;;;3.80;2.27;;;5.80;67.30;;;;;;5026029;28;20036;-85
2022/02/07 06:17:04;;;;;;;2.23;1.53;;;5.60;67.80;;;;;;5029576;28;20052;-85
2022/02/07 06:19:30;;;;;;;5.20;3.33;;;5.70;68.80;;;;;;5022984;28;20030;-85
2022/02/07 06:21:56;;;;;;;3.77;2.60;;;5.70;68.70;;;;;;5030440;28;20037;-85
2022/02/07 06:24:22;;;;;;;2.73;1.60;;;5.60;68.70;;;;;;5024507;28;20025;-85
2022/02/07 06:26:48;;;;;;;3.20;1.90;;;5.60;69.00;;;;;;5025785;28;20374;-85
2022/02/07 06:29:14;;;;;;;4.00;3.53;;;5.50;69.10;;;;;;5032715;28;20032;-85
2022/02/07 06:31:40;;;;;;;4.73;3.33;;;5.60;69.20;;;;;;5033003;28;20331;-85
2022/02/07 06:34:06;;;;;;;3.57;1.90;;;5.60;69.30;;;;;;5025974;28;20079;-85
2022/02/07 06:36:31;;;;;;;4.93;0.90;;;5.50;69.40;;;;;;5030114;28;20053;-85
2022/02/07 06:38:57;;;;;;;3.67;0.83;;;5.40;69.40;;;;;;5029629;28;20338;-85
2022/02/07 06:41:23;;;;;;;3.77;1.23;;;5.30;69.90;;;;;;5027130;28;20029;-84
2022/02/07 06:43:49;;;;;;;3.13;1.53;;;5.30;69.90;;;;;;5024652;28;20033;-85
2022/02/07 06:46:15;;;;;;;4.97;1.47;;;5.30;70.50;;;;;;5029816;28;20036;-85
2022/02/07 06:48:41;;;;;;;6.60;1.93;;;5.30;70.30;;;;;;5027499;28;20041;-85
2022/02/07 06:51:07;;;;;;;6.10;3.27;;;5.20;70.60;;;;;;5031463;28;20052;-85
2022/02/07 06:53:34;;;;;;;6.70;3.93;;;5.30;70.70;;;;;;5027644;28;20069;-85
2022/02/07 06:56:00;;;;;;;3.50;1.93;;;5.30;70.80;;;;;;5027997;28;20025;-86
2022/02/07 06:58:25;;;;;;;2.80;1.27;;;5.30;70.60;;;;;;5020089;28;20037;-86
2022/02/07 07:00:51;;;;;;;3.03;1.00;;;5.50;71.30;;;;;;5021776;28;20025;-85
2022/02/07 07:03:20;;;;;;;3.60;2.30;;;5.60;69.80;;;;;;5025172;28;20063;-86
2022/02/07 07:05:48;;;;;;;4.47;2.10;;;5.50;70.30;;;;;;5020377;28;20117;-85
2022/02/07 07:08:14;;;;;;;4.10;1.97;;;5.40;69.90;;;;;;5032057;28;20112;-85
2022/02/07 07:10:40;;;;;;;4.60;2.17;;;5.30;70.20;;;;;;5028008;28;20116;-86
2022/02/07 07:13:16;;;;;;;4.07;2.13;;;5.30;70.40;;;;;;5027197;28;20028;-86
2022/02/07 07:15:58;;;;;;;2.93;1.50;;;5.20;70.90;;;;;;5022980;28;20022;-85
2022/02/07 07:18:24;;;;;;;2.92;1.20;;;5.20;70.60;;;;;;5024016;28;20022;-85
2022/02/07 07:20:50;;;;;;;7.13;2.77;;;5.10;70.70;;;;;;5031094;28;20037;-85
2022/02/07 07:23:15;;;;;;;4.07;1.70;;;5.10;71.00;;;;;;5026929;28;20033;-85
2022/02/07 07:25:44;;;;;;;4.60;1.90;;;5.00;71.10;;;;;;5027744;28;20021;-85
2022/02/07 07:28:12;;;;;;;3.03;1.23;;;5.00;71.20;;;;;;5031395;28;20487;-85
2022/02/07 07:30:51;;;;;;;6.57;2.33;;;5.00;71.50;;;;;;5030299;28;20079;-85
2022/02/07 07:33:21;;;;;;;3.73;1.40;;;5.10;71.60;;;;;;5026635;28;20086;-85
2022/02/07 07:35:47;;;;;;;6.43;2.37;;;5.10;71.50;;;;;;5019926;28;20022;-85
2022/02/07 07:38:12;;;;;;;6.90;2.30;;;5.30;71.50;;;;;;5031185;28;20500;-85
2022/02/07 07:40:39;;;;;;;6.50;1.63;;;5.30;71.00;;;;;;5031772;28;20022;-85
2022/02/07 07:43:07;;;;;;;0.70;0.30;;;5.30;70.70;;;;;;5031775;28;20040;-85
2022/02/07 07:45:36;;;;;;;2.30;1.17;;;5.20;70.20;;;;;;5023340;28;20521;-85
2022/02/07 07:48:09;;;;;;;1.63;1.40;;;5.30;70.40;;;;;;5032325;28;20041;-85
2022/02/07 07:50:46;;;;;;;;;;;5.40;69.30;;;;;;5025783;28;20025;-85
2022/02/07 07:53:22;;;;;;;2.17;1.10;;;5.30;69.20;;;;;;5029964;28;20011;-85
2022/02/07 08:01:38;;;;;;;1.60;0.50;;;5.40;69.30;;;;;;5029254;28;20119;-85
2022/02/07 08:04:05;;;;;;;2.47;1.03;;;5.30;69.20;;;;;;5028789;28;20036;-86
2022/02/07 08:06:39;;;;;;;2.70;1.20;;;5.40;69.00;;;;;;5026211;28;20018;-85
2022/02/07 08:11:32;;;;;;;1.57;0.70;;;5.40;68.60;;;;;;5032953;28;20044;-85
2022/02/07 08:13:58;;;;;;;0.83;0.40;;;5.40;68.40;;;;;;5029981;28;20464;-86
2022/02/07 08:16:24;;;;;;;1.33;0.40;;;5.20;67.70;;;;;;5026975;28;20039;-85
2022/02/07 08:18:50;;;;;;;1.67;0.20;;;5.20;66.40;;;;;;5014323;28;20116;-85
2022/02/07 08:21:16;;;;;;;9.30;1.23;;;5.20;65.20;;;;;;5030373;28;20124;-85
2022/02/07 08:23:43;;;;;;;7.27;1.40;;;5.30;65.10;;;;;;5023912;28;20544;-85
2022/02/07 08:26:14;;;;;;;7.70;1.97;;;5.20;65.20;;;;;;5032275;28;20380;-86
2022/02/07 08:28:40;;;;;;;4.60;1.13;;;5.20;65.40;;;;;;5031458;28;20033;-85
2022/02/07 08:31:06;;;;;;;1.93;0.60;;;5.20;65.80;;;;;;5030463;28;20366;-85
2022/02/07 08:33:32;;;;;;;2.37;0.30;;;5.30;65.80;;;;;;5024263;28;20091;-86
2022/02/07 08:35:58;;;;;;;1.57;0.30;;;5.40;65.30;;;;;;5020832;28;20025;-86
2022/02/07 08:38:23;;;;;;;1.87;0.40;;;5.30;65.20;;;;;;5026104;28;20475;-86
2022/02/07 08:40:50;;;;;;;5.33;0.80;;;5.30;64.80;;;;;;5029581;28;20087;-85
2022/02/07 08:43:16;;;;;;;3.03;0.77;;;5.30;65.00;;;;;;5027098;28;20095;-85
2022/02/07 08:45:42;;;;;;;2.57;0.60;;;5.30;64.00;;;;;;5024800;28;21011;-85
2022/02/07 08:48:10;;;;;;;3.20;0.80;;;5.20;64.00;;;;;;5031383;28;20076;-85
2022/02/07 08:50:36;;;;;;;1.77;0.70;;;5.30;63.70;;;;;;5028099;28;20053;-85
2022/02/07 08:53:04;;;;;;;3.10;0.50;;;5.20;63.70;;;;;;5033288;28;20025;-85
2022/02/07 08:55:34;;;;;;;2.63;0.30;;;5.20;62.70;;;;;;5029980;28;20026;-85
2022/02/07 08:58:06;;;;;;;3.27;0.33;;;5.10;60.70;;;;;;5029359;28;20017;-86
2022/02/07 09:03:20;;;;;;;1.07;0.50;;;5.10;60.40;;;;;;5043646;28;20040;-85
2022/02/07 09:10:44;;;;;;;1.13;0.30;;;5.00;60.40;;;;;;5028243;28;20033;-85
2022/02/07 09:13:10;;;;;;;2.50;0.60;;;5.00;60.70;;;;;;5026592;28;20459;-86
2022/02/07 09:18:12;;;;;;;3.43;1.00;;;5.20;61.00;;;;;;5026437;28;20540;-86
2022/02/07 09:20:41;;;;;;;3.47;1.43;;;5.20;61.30;;;;;;5032442;28;20048;-85
2022/02/07 09:23:07;;;;;;;5.97;0.70;;;5.10;61.30;;;;;;5032034;28;20060;-86
2022/02/07 09:25:33;;;;;;;1.57;0.20;;;5.10;63.00;;;;;;5030070;28;20052;-86
2022/02/07 09:27:59;;;;;;;2.20;0.50;;;5.40;60.20;;;;;;5027267;28;20519;-86
2022/02/07 09:30:26;;;;;;;3.10;0.53;;;5.30;59.50;;;;;;5020788;28;20030;-85
2022/02/07 09:32:53;;;;;;;5.37;0.40;;;5.30;59.50;;;;;;5031340;28;20473;-86
2022/02/07 09:35:19;;;;;;;0.93;0.30;;;5.30;59.80;;;;;;5030374;28;20477;-86
2022/02/07 09:37:46;;;;;;;2.53;0.50;;;5.30;59.80;;;;;;5030395;28;20076;-85
2022/02/07 09:40:14;;;;;;;0.50;0.30;;;5.30;60.00;;;;;;5030709;28;20388;-86
2022/02/07 09:42:42;;;;;;;1.80;0.30;;;5.40;60.00;;;;;;5020074;28;20030;-86
2022/02/07 09:45:18;;;;;;;1.17;0.30;;;5.30;59.90;;;;;;5028112;28;20033;-86
2022/02/07 09:47:46;;;;;;;3.70;1.50;;;5.30;60.70;;;;;;5020141;28;20568;-86
2022/02/07 09:50:13;;;;;;;3.67;0.93;;;5.30;61.30;;;;;;5029385;28;20060;-86
2022/02/07 09:52:39;;;;;;;3.80;0.93;;;5.40;61.70;;;;;;5024109;28;20117;-86
2022/02/07 09:55:10;;;;;;;3.57;1.60;;;5.50;62.40;;;;;;5020245;28;20057;-86
2022/02/07 09:57:36;;;;;;;4.97;1.93;;;5.50;61.90;;;;;;5027824;28;20037;-86
2022/02/07 10:00:07;;;;;;;4.20;1.57;;;5.40;61.90;;;;;;5018085;28;20026;-86
2022/02/07 10:03:03;;;;;;;4.57;1.40;;;5.40;62.20;;;;;;5029626;28;20021;-86
2022/02/07 10:05:32;;;;;;;3.30;0.80;;;5.60;63.00;;;;;;5025025;28;20052;-86
2022/02/07 10:08:49;;;;;;;3.90;0.97;;;5.80;62.70;;;;;;5021707;28;20497;-86
2022/02/07 10:11:04;;;;;;;5.47;1.40;;;6.00;62.30;;;;;;5024364;28;20061;-85
2022/02/07 10:38:11;;;;;;;9.20;5.60;;;5.50;63.50;;;;;;5028702;28;20036;-86
2022/02/07 10:40:53;;;;;;;11.10;8.13;;;5.50;63.60;;;;;;5027432;28;20029;-85
2022/02/07 10:43:31;;;;;;;3.75;2.03;;;5.60;63.60;;;;;;5019080;28;20029;-86
2022/02/07 10:46:08;;;;;;;7.03;2.10;;;5.60;63.80;;;;;;5030631;28;20116;-86
2022/02/07 10:48:42;;;;;;;10.03;3.87;;;5.70;64.10;;;;;;5029893;28;20045;-86
2022/02/07 10:51:07;;;;;;;8.17;3.60;;;5.70;63.80;;;;;;5030772;28;20032;-86
2022/02/07 10:53:38;;;;;;;8.63;1.70;;;5.60;64.40;;;;;;5030606;28;20105;-86
2022/02/07 10:56:05;;;;;;;14.63;3.70;;;5.60;63.80;;;;;;5027435;28;20274;-85
2022/02/07 10:58:31;;;;;;;19.57;5.43;;;5.30;64.60;;;;;;5011988;28;20409;-85
2022/02/07 11:01:07;;;;;;;19.93;4.10;;;5.20;65.30;;;;;;5022416;28;20076;-85
2022/02/07 11:03:40;;;;;;;28.03;4.90;;;5.30;65.20;;;;;;5024782;28;20380;-85
2022/02/07 11:06:07;;;;;;;;;;;5.30;65.10;;;;;;5031673;28;20032;-85
2022/02/07 11:19:20;;;;;;;28.27;5.37;;;5.90;63.50;;;;;;5032552;28;20485;-86
2022/02/07 11:27:31;;;;;;;6.65;2.00;;;5.90;63.10;;;;;;5033270;28;20060;-85
2022/02/07 11:29:58;;;;;;;3.43;1.20;;;5.80;63.10;;;;;;5031691;28;20033;-86
2022/02/07 11:35:12;;;;;;;4.27;0.80;;;5.70;63.90;;;;;;5037632;28;20040;-86
2022/02/07 11:37:39;;;;;;;7.07;2.17;;;5.70;64.00;;;;;;5040339;28;20056;-86
2022/02/07 11:40:25;;;;;;;13.87;5.00;;;5.70;64.20;;;;;;5035025;28;20128;-86
2022/02/07 11:43:16;;;;;;;2.80;1.20;;;5.70;64.30;;;;;;5034924;28;20029;-86
2022/02/07 11:45:56;;;;;;;4.87;1.77;;;5.70;64.20;;;;;;5035034;28;20033;-86
2022/02/07 11:48:46;;;;;;;2.83;1.43;;;5.80;64.40;;;;;;5034410;28;20054;-86
2022/02/07 11:51:29;;;;;;;4.03;1.27;;;6.00;64.70;;;;;;5020339;28;20550;-86
2022/02/07 11:54:05;;;;;;;4.83;0.77;;;6.20;63.90;;;;;;5034811;28;20405;-87
2022/02/07 11:59:28;;;;;;;4.30;0.77;;;6.50;63.40;;;;;;5042520;28;20124;-86
2022/02/07 12:02:07;;;;;;;3.97;0.90;;;6.50;63.00;;;;;;5042584;28;20041;-86
2022/02/07 12:04:48;;;;;;;3.53;1.20;;;6.70;62.50;;;;;;5033988;28;20494;-85
2022/02/07 12:07:23;;;;;;;4.07;1.37;;;6.70;62.50;;;;;;5048315;28;20040;-85
2022/02/07 12:10:06;;;;;;;2.57;1.03;;;6.80;62.10;;;;;;5034323;28;20063;-86
2022/02/07 12:12:46;;;;;;;2.30;0.80;;;7.00;62.10;;;;;;5014993;28;20465;-86
2022/02/07 12:15:15;;;;;;;2.67;0.50;;;7.00;61.30;;;;;;5013965;28;20026;-86
2022/02/07 12:17:44;;;;;;;5.30;2.50;;;6.70;61.50;;;;;;5014045;28;20030;-86
2022/02/07 12:20:15;;;;;;;6.00;1.77;;;6.80;61.90;;;;;;5024694;28;20026;-85
2022/02/07 12:23:04;;;;;;;5.53;0.90;;;6.70;61.20;;;;;;5029852;28;20120;-85
2022/02/07 12:25:30;;;;;;;5.07;1.00;;;6.40;61.90;;;;;;5025770;28;20472;-85
2022/02/07 12:28:01;;;;;;;4.60;0.43;;;6.20;62.50;;;;;;5026135;28;20469;-86
2022/02/07 12:30:59;;;;;;;6.90;0.83;;;6.10;62.60;;;;;;5014145;28;20040;-87
2022/02/07 12:33:25;;;;;;;4.70;0.80;;;5.80;62.80;;;;;;5024205;28;20121;-85
2022/02/07 12:35:53;;;;;;;2.17;1.30;;;5.60;63.60;;;;;;5031532;28;20384;-86
2022/02/07 12:38:19;;;;;;;4.93;0.67;;;5.60;64.60;;;;;;5034052;28;20032;-86
2022/02/07 12:40:45;;;;;;;5.30;1.80;;;5.70;64.20;;;;;;5033636;28;20033;-86
2022/02/07 12:43:13;;;;;;;2.70;1.10;;;5.70;64.40;;;;;;5033752;28;20029;-86
2022/02/07 12:45:42;;;;;;;1.60;1.00;;;6.10;64.60;;;;;;5023150;28;20591;-85
2022/02/07 12:48:15;;;;;;;1.67;0.90;;;6.30;63.30;;;;;;5032731;28;20072;-86
2022/02/07 12:50:49;;;;;;;2.22;0.90;;;6.30;62.70;;;;;;5033995;28;20037;-86
2022/02/07 12:53:20;;;;;;;2.70;0.70;;;6.10;62.90;;;;;;5033805;28;20033;-86
2022/02/07 12:55:47;;;;;;;4.80;1.13;;;6.10;63.30;;;;;;5036498;28;20119;-85
2022/02/07 12:58:14;;;;;;;2.97;1.17;;;6.30;62.70;;;;;;5030275;28;20053;-85
2022/02/07 13:00:39;;;;;;;2.47;0.50;;;6.10;62.40;;;;;;5032953;28;20075;-85
2022/02/07 13:03:05;;;;;;;1.67;0.40;;;5.90;62.60;;;;;;5034478;28;20500;-85
2022/02/07 13:05:33;;;;;;;2.03;0.33;;;5.60;62.80;;;;;;5022382;28;20037;-86
2022/02/07 13:08:01;;;;;;;1.83;0.43;;;5.50;63.50;;;;;;5029496;28;20541;-86
2022/02/07 13:10:34;;;;;;;2.33;1.10;;;5.40;63.70;;;;;;5034489;28;20080;-85
2022/02/07 13:15:29;;;;;;;2.30;0.73;;;5.40;64.20;;;;;;5034276;28;20356;-86
2022/02/07 13:18:06;;;;;;;4.60;1.53;;;5.50;64.30;;;;;;5033080;28;20032;-86
2022/02/07 13:20:33;;;;;;;1.70;0.90;;;5.60;64.90;;;;;;5033298;28;20025;-88
2022/02/07 13:23:10;;;;;;;2.80;0.70;;;5.70;64.20;;;;;;5032994;28;20022;-87
2022/02/07 13:25:48;;;;;;;3.07;0.70;;;5.50;64.40;;;;;;5033200;28;20021;-87
2022/02/07 13:28:16;;;;;;;1.87;0.60;;;5.50;64.70;;;;;;5034390;28;20017;-87
2022/02/07 13:30:45;;;;;;;1.93;0.90;;;5.60;65.30;;;;;;5033771;28;20025;-88
2022/02/07 13:33:11;;;;;;;3.73;1.90;;;5.70;64.80;;;;;;5032387;28;20021;-87
2022/02/07 13:35:42;;;;;;;3.87;1.73;;;5.70;64.80;;;;;;5032388;28;20032;-86
2022/02/07 13:38:08;;;;;;;9.93;4.73;;;5.80;65.00;;;;;;5034059;28;20074;-86
2022/02/07 13:40:42;;;;;;;4.23;2.80;;;5.80;65.10;;;;;;5032520;28;20026;-86
2022/02/07 13:43:20;;;;;;;5.63;2.63;;;5.70;65.40;;;;;;5032979;28;20503;-86
2022/02/07 13:45:54;;;;;;;3.57;2.00;;;5.80;65.40;;;;;;5034170;28;20108;-85
2022/02/07 13:48:23;;;;;;;4.20;1.20;;;5.80;65.50;;;;;;5033362;28;20056;-85
2022/02/07 13:50:53;;;;;;;4.30;2.03;;;5.90;65.30;;;;;;5032242;28;20473;-85
2022/02/07 13:53:19;;;;;;;5.67;2.57;;;5.90;65.30;;;;;;5032165;28;20376;-85
2022/02/07 13:55:54;;;;;;;5.57;1.87;;;5.80;65.20;;;;;;5033493;28;20586;-85
2022/02/07 13:58:34;;;;;;;5.30;2.57;;;5.70;65.40;;;;;;5032119;28;20030;-86
2022/02/07 14:01:14;;;;;;;6.00;2.10;;;5.60;65.80;;;;;;5027550;28;20036;-85
2022/02/07 14:03:43;;;;;;;7.83;1.30;;;5.50;66.20;;;;;;5032388;28;20032;-85
2022/02/07 14:06:14;;;;;;;1.97;1.10;;;5.50;66.50;;;;;;5032146;28;20029;-85
2022/02/07 14:08:49;;;;;;;4.50;1.23;;;5.70;66.90;;;;;;5031419;28;20032;-85
2022/02/07 14:11:22;;;;;;;2.60;0.80;;;5.80;66.80;;;;;;5024430;28;20036;-85
2022/02/07 14:13:49;;;;;;;;;;;5.90;66.60;;;;;;5033284;28;20025;-85
2022/02/07 14:16:18;;;;;;;2.43;0.60;;;5.90;65.90;;;;;;5051905;28;19947;-86
2022/02/07 14:18:48;;;;;;;2.00;0.93;;;6.00;66.00;;;;;;5052633;28;20464;-86
2022/02/07 14:21:15;;;;;;;2.50;1.00;;;6.00;65.90;;;;;;5039462;28;20430;-86
2022/02/07 14:23:44;;;;;;;4.23;0.90;;;6.00;65.60;;;;;;5031613;28;20021;-86
2022/02/07 14:26:15;;;;;;;1.70;0.67;;;6.20;66.30;;;;;;5040238;28;20032;-86
2022/02/07 14:28:40;;;;;;;2.70;0.50;;;6.30;64.30;;;;;;5032242;28;20034;-86
2022/02/07 14:31:08;;;;;;;3.00;0.50;;;6.00;64.30;;;;;;5036909;28;20033;-84
2022/02/07 14:33:34;;;;;;;3.43;0.60;;;6.10;64.70;;;;;;5031889;28;20022;-85
2022/02/07 14:36:00;;;;;;;2.07;0.50;;;6.00;64.30;;;;;;5012705;28;20109;-86
2022/02/07 14:38:26;;;;;;;7.27;0.70;;;6.00;64.70;;;;;;5013702;28;20026;-85
2022/02/07 14:40:51;;;;;;;1.70;0.70;;;6.10;64.20;;;;;;5046588;28;20056;-86
2022/02/07 14:43:26;;;;;;;2.20;0.67;;;6.10;64.10;;;;;;5031598;28;20057;-86
2022/02/07 14:46:00;;;;;;;2.50;0.70;;;6.20;63.90;;;;;;5032758;28;20045;-85
2022/02/07 14:48:26;;;;;;;2.20;0.50;;;6.20;64.00;;;;;;5025192;28;20050;-85
2022/02/07 14:50:53;;;;;;;2.20;0.93;;;6.40;63.80;;;;;;5032816;28;20030;-85
2022/02/07 14:53:18;;;;;;;2.87;0.50;;;6.60;62.50;;;;;;5038924;28;20029;-86
2022/02/07 14:55:44;;;;;;;1.77;0.30;;;6.30;61.60;;;;;;5032802;28;20030;-86
2022/02/07 14:58:10;;;;;;;2.73;0.60;;;6.00;61.90;;;;;;5027341;28;20021;-86
2022/02/07 15:00:38;;;;;;;2.33;0.70;;;5.90;63.00;;;;;;5018736;28;20026;-86
2022/02/07 15:03:05;;;;;;;2.40;0.63;;;6.00;63.30;;;;;;5020898;28;20167;-86
2022/02/07 15:05:34;;;;;;;4.10;1.07;;;6.00;62.40;;;;;;5031460;28;20030;-87
2022/02/07 15:07:59;;;;;;;1.30;0.60;;;6.20;63.30;;;;;;5031636;28;20482;-86
2022/02/07 15:10:26;;;;;;;3.10;1.30;;;6.40;62.80;;;;;;5033870;28;20061;-87
2022/02/07 15:12:52;;;;;;;15.80;5.67;;;6.60;62.60;;;;;;5035309;28;20053;-86
2022/02/07 15:15:18;;;;;;;8.10;4.53;;;6.60;61.40;;;;;;5035728;28;20108;-87
2022/02/07 15:17:45;;;;;;;30.03;14.27;;;6.50;61.80;;;;;;5035614;28;20018;-87
2022/02/07 15:20:13;;;;;;;9.67;4.93;;;6.50;62.20;;;;;;5016471;28;20389;-86
2022/02/07 15:22:45;;;;;;;3.20;1.60;;;6.60;61.10;;;;;;5024997;28;20046;-86
2022/02/07 15:25:17;;;;;;;7.00;2.00;;;6.30;60.70;;;;;;5032099;28;20381;-86
2022/02/07 15:27:43;;;;;;;4.60;1.80;;;6.30;61.00;;;;;;5051114;28;20036;-87
2022/02/07 15:30:09;;;;;;;2.30;1.20;;;6.10;61.30;;;;;;5040549;28;20026;-86
2022/02/07 15:32:39;;;;;;;3.53;1.03;;;6.20;61.30;;;;;;5035178;28;20397;-87
2022/02/07 15:35:06;;;;;;;6.20;1.53;;;6.10;61.50;;;;;;5029187;28;20071;-87
2022/02/07 15:37:33;;;;;;;3.83;1.20;;;6.10;60.70;;;;;;5045321;28;20029;-87
2022/02/07 15:39:59;;;;;;;6.30;1.77;;;6.20;61.60;;;;;;5036957;28;20029;-86
2022/02/07 15:42:25;;;;;;;6.40;1.53;;;6.20;60.90;;;;;;5022337;28;20599;-87
2022/02/07 15:44:53;;;;;;;2.50;0.83;;;6.10;61.30;;;;;;5031516;28;20029;-86
2022/02/07 15:47:19;;;;;;;3.30;1.07;;;5.80;61.30;;;;;;5034567;28;20041;-86
2022/02/07 15:49:45;;;;;;;3.07;1.50;;;5.40;62.20;;;;;;5021667;28;20022;-87